sensor_id;sensor_type;location;lat;lon;timestamp;pressure;altitude;pressure_sealevel;temperature;humidity
73974;BME280;62336;-26.094;27.994;2023-06-22T00:00:01;85219.76;;;21.07;13.17
73974;BME280;62336;-26.094;27.994;2023-06-22T00:02:26;85221.38;;;20.84;13.05
73974;BME280;62336;-26.094;27.994;2023-06-22T00:04:52;85221.75;;;21.65;12.91
73974;BME280;62336;-26.094;27.994;2023-06-22T00:07:17;85223.76;;;20.84;13.47
73974;BME280;62336;-26.094;27.994;2023-06-22T00:09:43;85222.69;;;20.92;13.62
73974;BME280;62336;-26.094;27.994;2023-06-22T00:12:08;85223.47;;;20.99;13.24
73974;BME280;62336;-26.094;27.994;2023-06-22T00:14:33;85221.30;;;21.04;13.10
73974;BME280;62336;-26.094;27.994;2023-06-22T00:16:59;85214.46;;;21.63;13.05
73974;BME280;62336;-26.094;27.994;2023-06-22T00:19:25;85211.45;;;20.84;13.49
73974;BME280;62336;-26.094;27.994;2023-06-22T00:21:50;85211.49;;;20.76;13.15
73974;BME280;62336;-26.094;27.994;2023-06-22T00:24:14;85215.65;;;21.60;12.83
73974;BME280;62336;-26.094;27.994;2023-06-22T00:26:40;85215.65;;;21.29;13.22
73974;BME280;62336;-26.094;27.994;2023-06-22T00:29:06;85217.47;;;21.01;13.61
73974;BME280;62336;-26.094;27.994;2023-06-22T00:31:31;85219.42;;;20.70;13.72
73974;BME280;62336;-26.094;27.994;2023-06-22T00:33:56;85216.72;;;20.62;13.19
73974;BME280;62336;-26.094;27.994;2023-06-22T00:36:22;85220.01;;;20.98;12.83
73974;BME280;62336;-26.094;27.994;2023-06-22T00:38:52;85220.43;;;22.17;12.65
73974;BME280;62336;-26.094;27.994;2023-06-22T00:41:12;85219.54;;;22.05;12.98
73974;BME280;62336;-26.094;27.994;2023-06-22T00:43:39;85220.39;;;21.92;13.16
73974;BME280;62336;-26.094;27.994;2023-06-22T00:46:04;85215.84;;;22.02;12.80
73974;BME280;62336;-26.094;27.994;2023-06-22T00:48:30;85215.51;;;21.82;12.76
73974;BME280;62336;-26.094;27.994;2023-06-22T00:50:56;85215.87;;;21.74;12.40
73974;BME280;62336;-26.094;27.994;2023-06-22T00:53:21;85219.64;;;22.07;12.89
73974;BME280;62336;-26.094;27.994;2023-06-22T00:55:47;85217.50;;;21.57;13.23
73974;BME280;62336;-26.094;27.994;2023-06-22T00:58:12;85213.70;;;20.97;12.30
73974;BME280;62336;-26.094;27.994;2023-06-22T01:00:38;85213.10;;;21.68;12.24
73974;BME280;62336;-26.094;27.994;2023-06-22T01:03:03;85215.25;;;21.25;12.22
73974;BME280;62336;-26.094;27.994;2023-06-22T01:05:28;85215.06;;;21.39;12.58
73974;BME280;62336;-26.094;27.994;2023-06-22T01:08:03;85214.59;;;21.62;12.52
73974;BME280;62336;-26.094;27.994;2023-06-22T01:10:25;85211.37;;;21.68;12.76
73974;BME280;62336;-26.094;27.994;2023-06-22T01:12:47;85211.95;;;21.31;12.82
73974;BME280;62336;-26.094;27.994;2023-06-22T01:15:13;85217.94;;;21.00;13.10
73974;BME280;62336;-26.094;27.994;2023-06-22T01:17:36;85221.30;;;20.74;13.01
73974;BME280;62336;-26.094;27.994;2023-06-22T01:20:01;85218.43;;;21.29;12.97
73974;BME280;62336;-26.094;27.994;2023-06-22T01:22:28;85217.91;;;21.83;12.59
73974;BME280;62336;-26.094;27.994;2023-06-22T01:25:00;85220.01;;;21.96;12.60
73974;BME280;62336;-26.094;27.994;2023-06-22T01:27:25;85217.26;;;21.28;13.13
73974;BME280;62336;-26.094;27.994;2023-06-22T01:29:41;85218.59;;;21.65;13.22
73974;BME280;62336;-26.094;27.994;2023-06-22T01:32:07;85219.58;;;22.12;12.78
73974;BME280;62336;-26.094;27.994;2023-06-22T01:34:32;85217.11;;;21.88;12.96
73974;BME280;62336;-26.094;27.994;2023-06-22T01:36:57;85212.50;;;21.29;13.06
73974;BME280;62336;-26.094;27.994;2023-06-22T01:39:23;85207.55;;;21.39;13.38
73974;BME280;62336;-26.094;27.994;2023-06-22T01:41:48;85208.07;;;20.99;13.71
73974;BME280;62336;-26.094;27.994;2023-06-22T01:44:14;85206.62;;;20.27;13.94
73974;BME280;62336;-26.094;27.994;2023-06-22T01:46:40;85206.53;;;20.46;14.04
73974;BME280;62336;-26.094;27.994;2023-06-22T01:49:04;85208.00;;;19.49;14.67
73974;BME280;62336;-26.094;27.994;2023-06-22T01:51:29;85212.05;;;20.49;14.13
73974;BME280;62336;-26.094;27.994;2023-06-22T01:53:54;85212.32;;;20.61;14.21
73974;BME280;62336;-26.094;27.994;2023-06-22T01:56:21;85215.53;;;20.35;13.80
73974;BME280;62336;-26.094;27.994;2023-06-22T01:58:51;85220.96;;;20.41;13.63
73974;BME280;62336;-26.094;27.994;2023-06-22T02:01:12;85222.30;;;20.98;13.32
73974;BME280;62336;-26.094;27.994;2023-06-22T02:03:41;85223.81;;;20.50;13.77
73974;BME280;62336;-26.094;27.994;2023-06-22T02:06:14;85220.73;;;20.02;14.14
73974;BME280;62336;-26.094;27.994;2023-06-22T02:08:32;85222.60;;;20.27;14.07
73974;BME280;62336;-26.094;27.994;2023-06-22T02:10:55;85220.04;;;20.17;14.21
73974;BME280;62336;-26.094;27.994;2023-06-22T02:13:20;85218.08;;;20.26;13.96
73974;BME280;62336;-26.094;27.994;2023-06-22T02:15:46;85217.67;;;20.69;13.66
73974;BME280;62336;-26.094;27.994;2023-06-22T02:18:10;85216.69;;;20.77;13.45
73974;BME280;62336;-26.094;27.994;2023-06-22T02:20:37;85213.90;;;20.85;13.47
73974;BME280;62336;-26.094;27.994;2023-06-22T02:23:00;85216.05;;;19.97;13.58
73974;BME280;62336;-26.094;27.994;2023-06-22T02:25:26;85217.44;;;20.96;13.61
73974;BME280;62336;-26.094;27.994;2023-06-22T02:27:51;85221.63;;;20.35;13.49
73974;BME280;62336;-26.094;27.994;2023-06-22T02:30:17;85223.40;;;21.38;12.77
73974;BME280;62336;-26.094;27.994;2023-06-22T02:32:43;85218.83;;;20.91;12.93
73974;BME280;62336;-26.094;27.994;2023-06-22T02:35:09;85216.71;;;20.78;12.99
73974;BME280;62336;-26.094;27.994;2023-06-22T02:37:36;85220.71;;;20.71;13.22
73974;BME280;62336;-26.094;27.994;2023-06-22T02:40:00;85224.49;;;20.79;13.23
73974;BME280;62336;-26.094;27.994;2023-06-22T02:42:25;85218.81;;;20.21;13.28
73974;BME280;62336;-26.094;27.994;2023-06-22T02:44:51;85220.46;;;20.31;13.50
73974;BME280;62336;-26.094;27.994;2023-06-22T02:47:16;85221.92;;;20.39;13.53
73974;BME280;62336;-26.094;27.994;2023-06-22T02:49:41;85221.52;;;20.49;13.23
73974;BME280;62336;-26.094;27.994;2023-06-22T02:52:08;85222.63;;;20.22;13.42
73974;BME280;62336;-26.094;27.994;2023-06-22T02:54:32;85221.83;;;20.04;13.69
73974;BME280;62336;-26.094;27.994;2023-06-22T02:56:57;85223.45;;;20.21;13.32
73974;BME280;62336;-26.094;27.994;2023-06-22T02:59:28;85218.58;;;19.94;13.48
73974;BME280;62336;-26.094;27.994;2023-06-22T03:01:48;85222.66;;;19.96;13.41
73974;BME280;62336;-26.094;27.994;2023-06-22T03:04:13;85222.74;;;20.09;13.39
73974;BME280;62336;-26.094;27.994;2023-06-22T03:06:39;85223.65;;;19.85;13.50
73974;BME280;62336;-26.094;27.994;2023-06-22T03:09:05;85226.10;;;20.33;13.36
73974;BME280;62336;-26.094;27.994;2023-06-22T03:11:30;85226.79;;;19.94;13.24
73974;BME280;62336;-26.094;27.994;2023-06-22T03:13:55;85224.76;;;20.19;13.05
73974;BME280;62336;-26.094;27.994;2023-06-22T03:16:22;85219.40;;;20.45;12.93
73974;BME280;62336;-26.094;27.994;2023-06-22T03:18:46;85218.51;;;20.42;13.00
73974;BME280;62336;-26.094;27.994;2023-06-22T03:21:11;85215.53;;;20.47;12.97
73974;BME280;62336;-26.094;27.994;2023-06-22T03:23:37;85216.37;;;20.79;12.85
73974;BME280;62336;-26.094;27.994;2023-06-22T03:26:02;85216.46;;;20.68;12.76
73974;BME280;62336;-26.094;27.994;2023-06-22T03:28:27;85214.66;;;20.76;12.95
73974;BME280;62336;-26.094;27.994;2023-06-22T03:30:53;85219.03;;;20.38;13.31
73974;BME280;62336;-26.094;27.994;2023-06-22T03:33:19;85221.96;;;20.41;13.12
73974;BME280;62336;-26.094;27.994;2023-06-22T03:35:43;85226.63;;;20.35;13.16
73974;BME280;62336;-26.094;27.994;2023-06-22T03:38:08;85229.06;;;20.55;13.19
73974;BME280;62336;-26.094;27.994;2023-06-22T03:40:34;85228.19;;;20.35;13.01
73974;BME280;62336;-26.094;27.994;2023-06-22T03:42:59;85226.90;;;20.15;13.11
73974;BME280;62336;-26.094;27.994;2023-06-22T03:45:25;85227.33;;;20.15;13.26
73974;BME280;62336;-26.094;27.994;2023-06-22T03:47:49;85231.00;;;20.55;13.02
73974;BME280;62336;-26.094;27.994;2023-06-22T03:50:15;85236.29;;;20.73;12.90
73974;BME280;62336;-26.094;27.994;2023-06-22T03:52:40;85241.18;;;20.31;13.06
73974;BME280;62336;-26.094;27.994;2023-06-22T03:55:07;85243.17;;;20.77;13.02
73974;BME280;62336;-26.094;27.994;2023-06-22T03:57:31;85242.64;;;20.44;13.03
73974;BME280;62336;-26.094;27.994;2023-06-22T03:59:58;85242.50;;;19.86;13.28
73974;BME280;62336;-26.094;27.994;2023-06-22T04:02:22;85244.11;;;20.00;13.21
73974;BME280;62336;-26.094;27.994;2023-06-22T04:04:48;85245.83;;;20.08;13.16
73974;BME280;62336;-26.094;27.994;2023-06-22T04:07:13;85245.60;;;20.82;12.96
73974;BME280;62336;-26.094;27.994;2023-06-22T04:09:39;85242.38;;;20.69;12.86
73974;BME280;62336;-26.094;27.994;2023-06-22T04:12:07;85241.89;;;20.99;12.71
73974;BME280;62336;-26.094;27.994;2023-06-22T04:14:29;85244.01;;;20.95;12.97
73974;BME280;62336;-26.094;27.994;2023-06-22T04:16:54;85245.84;;;20.91;13.03
73974;BME280;62336;-26.094;27.994;2023-06-22T04:19:21;85247.04;;;20.48;13.08
73974;BME280;62336;-26.094;27.994;2023-06-22T04:21:46;85248.43;;;20.61;13.01
73974;BME280;62336;-26.094;27.994;2023-06-22T04:24:11;85252.00;;;20.43;13.02
73974;BME280;62336;-26.094;27.994;2023-06-22T04:26:37;85253.47;;;20.64;12.95
73974;BME280;62336;-26.094;27.994;2023-06-22T04:29:02;85250.31;;;20.56;12.87
73974;BME280;62336;-26.094;27.994;2023-06-22T04:31:28;85249.99;;;21.13;12.88
73974;BME280;62336;-26.094;27.994;2023-06-22T04:33:53;85252.35;;;20.79;12.84
73974;BME280;62336;-26.094;27.994;2023-06-22T04:36:18;85255.12;;;20.53;13.01
73974;BME280;62336;-26.094;27.994;2023-06-22T04:38:43;85258.20;;;20.93;12.91
73974;BME280;62336;-26.094;27.994;2023-06-22T04:41:09;85263.86;;;21.65;12.75
73974;BME280;62336;-26.094;27.994;2023-06-22T04:43:36;85267.05;;;21.36;12.92
73974;BME280;62336;-26.094;27.994;2023-06-22T04:46:00;85266.64;;;21.16;13.14
73974;BME280;62336;-26.094;27.994;2023-06-22T04:48:25;85270.45;;;21.09;12.93
73974;BME280;62336;-26.094;27.994;2023-06-22T04:50:50;85271.03;;;20.26;13.29
73974;BME280;62336;-26.094;27.994;2023-06-22T04:53:16;85266.82;;;20.11;13.57
73974;BME280;62336;-26.094;27.994;2023-06-22T04:55:41;85265.55;;;20.45;13.32
73974;BME280;62336;-26.094;27.994;2023-06-22T04:58:07;85267.14;;;20.81;13.22
73974;BME280;62336;-26.094;27.994;2023-06-22T05:00:32;85269.94;;;20.64;13.15
73974;BME280;62336;-26.094;27.994;2023-06-22T05:02:58;85271.20;;;20.62;12.93
73974;BME280;62336;-26.094;27.994;2023-06-22T05:05:24;85270.09;;;20.42;13.27
73974;BME280;62336;-26.094;27.994;2023-06-22T05:07:51;85270.41;;;20.25;13.45
73974;BME280;62336;-26.094;27.994;2023-06-22T05:10:15;85270.57;;;20.67;13.32
73974;BME280;62336;-26.094;27.994;2023-06-22T05:12:40;85271.97;;;19.91;13.83
73974;BME280;62336;-26.094;27.994;2023-06-22T05:15:07;85273.03;;;19.76;13.96
73974;BME280;62336;-26.094;27.994;2023-06-22T05:17:31;85276.66;;;19.95;14.05
73974;BME280;62336;-26.094;27.994;2023-06-22T05:19:56;85280.46;;;19.77;14.21
73974;BME280;62336;-26.094;27.994;2023-06-22T05:22:23;85284.82;;;19.51;14.60
73974;BME280;62336;-26.094;27.994;2023-06-22T05:24:47;85283.50;;;20.04;14.13
73974;BME280;62336;-26.094;27.994;2023-06-22T05:27:13;85286.67;;;20.67;13.77
73974;BME280;62336;-26.094;27.994;2023-06-22T05:29:38;85292.07;;;20.52;13.59
73974;BME280;62336;-26.094;27.994;2023-06-22T05:32:05;85294.60;;;20.70;13.73
73974;BME280;62336;-26.094;27.994;2023-06-22T05:34:29;85297.11;;;21.13;13.50
73974;BME280;62336;-26.094;27.994;2023-06-22T05:36:55;85295.68;;;21.48;13.18
73974;BME280;62336;-26.094;27.994;2023-06-22T05:39:21;85296.94;;;21.06;13.28
73974;BME280;62336;-26.094;27.994;2023-06-22T05:41:46;85296.76;;;21.31;13.48
73974;BME280;62336;-26.094;27.994;2023-06-22T05:44:12;85297.69;;;20.62;13.81
73974;BME280;62336;-26.094;27.994;2023-06-22T05:46:40;85298.77;;;20.77;13.70
73974;BME280;62336;-26.094;27.994;2023-06-22T05:49:03;85304.02;;;20.69;13.82
73974;BME280;62336;-26.094;27.994;2023-06-22T05:51:28;85305.34;;;21.36;13.36
73974;BME280;62336;-26.094;27.994;2023-06-22T05:53:53;85304.66;;;21.82;13.16
73974;BME280;62336;-26.094;27.994;2023-06-22T05:56:18;85304.39;;;21.81;13.28
73974;BME280;62336;-26.094;27.994;2023-06-22T05:58:49;85304.78;;;21.73;13.40
73974;BME280;62336;-26.094;27.994;2023-06-22T06:01:08;85306.08;;;22.21;13.22
73974;BME280;62336;-26.094;27.994;2023-06-22T06:03:34;85307.56;;;21.84;13.21
73974;BME280;62336;-26.094;27.994;2023-06-22T06:05:59;85311.71;;;21.81;13.33
73974;BME280;62336;-26.094;27.994;2023-06-22T06:08:24;85313.06;;;21.81;13.27
73974;BME280;62336;-26.094;27.994;2023-06-22T06:13:14;85314.80;;;22.98;12.99
73974;BME280;62336;-26.094;27.994;2023-06-22T06:15:40;85313.26;;;23.34;12.75
73974;BME280;62336;-26.094;27.994;2023-06-22T06:18:05;85311.75;;;23.16;12.48
73974;BME280;62336;-26.094;27.994;2023-06-22T06:20:32;85312.74;;;23.35;12.68
73974;BME280;62336;-26.094;27.994;2023-06-22T06:22:57;85315.99;;;23.11;12.69
73974;BME280;62336;-26.094;27.994;2023-06-22T06:25:23;85317.56;;;23.79;12.59
73974;BME280;62336;-26.094;27.994;2023-06-22T06:27:49;85322.76;;;23.50;12.68
73974;BME280;62336;-26.094;27.994;2023-06-22T06:30:14;85324.94;;;23.68;12.62
73974;BME280;62336;-26.094;27.994;2023-06-22T06:32:38;85326.54;;;24.04;12.44
73974;BME280;62336;-26.094;27.994;2023-06-22T06:35:06;85328.56;;;24.17;12.46
73974;BME280;62336;-26.094;27.994;2023-06-22T06:37:30;85331.02;;;24.60;12.28
73974;BME280;62336;-26.094;27.994;2023-06-22T06:39:55;85333.41;;;24.63;11.72
73974;BME280;62336;-26.094;27.994;2023-06-22T06:42:21;85338.68;;;24.71;11.03
73974;BME280;62336;-26.094;27.994;2023-06-22T06:44:50;85342.30;;;24.79;11.47
73974;BME280;62336;-26.094;27.994;2023-06-22T06:47:11;85344.75;;;24.72;11.29
73974;BME280;62336;-26.094;27.994;2023-06-22T06:49:36;85346.55;;;24.78;11.29
73974;BME280;62336;-26.094;27.994;2023-06-22T06:52:01;85346.85;;;25.45;10.66
73974;BME280;62336;-26.094;27.994;2023-06-22T06:54:27;85349.98;;;25.14;10.40
73974;BME280;62336;-26.094;27.994;2023-06-22T06:56:53;85352.42;;;25.24;10.03
73974;BME280;62336;-26.094;27.994;2023-06-22T06:59:17;85351.41;;;25.73;9.98
73974;BME280;62336;-26.094;27.994;2023-06-22T07:01:44;85351.65;;;25.65;9.79
73974;BME280;62336;-26.094;27.994;2023-06-22T07:04:08;85351.38;;;25.88;9.17
73974;BME280;62336;-26.094;27.994;2023-06-22T07:06:33;85350.28;;;26.55;9.18
73974;BME280;62336;-26.094;27.994;2023-06-22T07:08:58;85348.13;;;26.63;9.29
73974;BME280;62336;-26.094;27.994;2023-06-22T07:11:23;85349.48;;;26.38;9.01
73974;BME280;62336;-26.094;27.994;2023-06-22T07:13:53;85350.93;;;26.62;8.68
73974;BME280;62336;-26.094;27.994;2023-06-22T07:16:14;85348.88;;;26.72;8.78
73974;BME280;62336;-26.094;27.994;2023-06-22T07:18:40;85351.29;;;26.69;9.24
73974;BME280;62336;-26.094;27.994;2023-06-22T07:21:04;85353.60;;;27.12;8.90
73974;BME280;62336;-26.094;27.994;2023-06-22T07:23:29;85353.84;;;27.12;8.72
73974;BME280;62336;-26.094;27.994;2023-06-22T07:25:54;85357.77;;;27.54;8.28
73974;BME280;62336;-26.094;27.994;2023-06-22T07:28:19;85358.17;;;27.36;8.36
73974;BME280;62336;-26.094;27.994;2023-06-22T07:30:44;85362.44;;;27.78;8.35
73974;BME280;62336;-26.094;27.994;2023-06-22T07:33:09;85361.73;;;27.96;8.09
73974;BME280;62336;-26.094;27.994;2023-06-22T07:35:35;85363.69;;;28.05;7.60
73974;BME280;62336;-26.094;27.994;2023-06-22T07:37:59;85363.10;;;28.56;7.08
73974;BME280;62336;-26.094;27.994;2023-06-22T07:40:24;85364.18;;;28.48;7.42
73974;BME280;62336;-26.094;27.994;2023-06-22T07:42:49;85365.08;;;29.03;7.03
73974;BME280;62336;-26.094;27.994;2023-06-22T07:45:15;85366.46;;;28.97;6.89
73974;BME280;62336;-26.094;27.994;2023-06-22T07:47:41;85365.25;;;29.10;6.81
73974;BME280;62336;-26.094;27.994;2023-06-22T07:50:05;85364.99;;;28.96;6.84
73974;BME280;62336;-26.094;27.994;2023-06-22T07:52:36;85366.20;;;29.25;6.86
73974;BME280;62336;-26.094;27.994;2023-06-22T07:54:57;85368.26;;;29.03;7.20
73974;BME280;62336;-26.094;27.994;2023-06-22T07:57:21;85368.69;;;28.45;7.05
73974;BME280;62336;-26.094;27.994;2023-06-22T07:59:45;85366.72;;;29.18;7.28
73974;BME280;62336;-26.094;27.994;2023-06-22T08:02:10;85359.73;;;29.44;7.55
73974;BME280;62336;-26.094;27.994;2023-06-22T08:04:35;85358.96;;;29.70;7.74
73974;BME280;62336;-26.094;27.994;2023-06-22T08:07:08;85363.37;;;30.31;6.78
73974;BME280;62336;-26.094;27.994;2023-06-22T08:09:27;85367.28;;;29.95;6.63
73974;BME280;62336;-26.094;27.994;2023-06-22T08:11:52;85365.94;;;29.97;6.92
73974;BME280;62336;-26.094;27.994;2023-06-22T08:14:17;85366.57;;;30.33;6.60
73974;BME280;62336;-26.094;27.994;2023-06-22T08:16:42;85365.22;;;30.84;6.12
73974;BME280;62336;-26.094;27.994;2023-06-22T08:19:08;85368.09;;;30.86;6.86
73974;BME280;62336;-26.094;27.994;2023-06-22T08:21:33;85369.72;;;30.47;6.20
73974;BME280;62336;-26.094;27.994;2023-06-22T08:23:59;85367.35;;;30.30;6.23
73974;BME280;62336;-26.094;27.994;2023-06-22T08:26:25;85362.94;;;30.13;6.99
73974;BME280;62336;-26.094;27.994;2023-06-22T08:28:50;85363.95;;;29.98;7.00
73974;BME280;62336;-26.094;27.994;2023-06-22T08:31:16;85358.65;;;30.52;6.41
73974;BME280;62336;-26.094;27.994;2023-06-22T08:33:41;85360.04;;;30.73;7.58
73974;BME280;62336;-26.094;27.994;2023-06-22T08:36:07;85360.42;;;31.36;6.54
73974;BME280;62336;-26.094;27.994;2023-06-22T08:38:31;85362.31;;;30.82;6.73
73974;BME280;62336;-26.094;27.994;2023-06-22T08:40:57;85361.26;;;30.77;6.57
73974;BME280;62336;-26.094;27.994;2023-06-22T08:43:23;85355.50;;;31.28;5.95
73974;BME280;62336;-26.094;27.994;2023-06-22T08:45:48;85358.02;;;30.56;7.04
73974;BME280;62336;-26.094;27.994;2023-06-22T08:48:14;85357.42;;;30.71;6.99
73974;BME280;62336;-26.094;27.994;2023-06-22T08:50:41;85355.21;;;31.38;7.02
73974;BME280;62336;-26.094;27.994;2023-06-22T08:53:04;85352.63;;;31.25;7.41
73974;BME280;62336;-26.094;27.994;2023-06-22T08:55:30;85349.30;;;31.34;6.96
73974;BME280;62336;-26.094;27.994;2023-06-22T08:57:56;85348.95;;;31.63;6.70
73974;BME280;62336;-26.094;27.994;2023-06-22T09:00:21;85348.89;;;31.52;6.92
73974;BME280;62336;-26.094;27.994;2023-06-22T09:02:45;85350.39;;;31.86;6.34
73974;BME280;62336;-26.094;27.994;2023-06-22T09:05:10;85347.79;;;31.54;6.14
73974;BME280;62336;-26.094;27.994;2023-06-22T09:07:36;85348.02;;;31.57;6.62
73974;BME280;62336;-26.094;27.994;2023-06-22T09:10:01;85344.57;;;31.56;6.47
73974;BME280;62336;-26.094;27.994;2023-06-22T09:12:27;85342.43;;;31.64;6.51
73974;BME280;62336;-26.094;27.994;2023-06-22T09:14:52;85345.97;;;31.74;6.81
73974;BME280;62336;-26.094;27.994;2023-06-22T09:17:24;85341.91;;;31.76;6.12
73974;BME280;62336;-26.094;27.994;2023-06-22T09:19:42;85343.97;;;32.31;5.73
73974;BME280;62336;-26.094;27.994;2023-06-22T09:22:09;85339.65;;;32.34;5.56
73974;BME280;62336;-26.094;27.994;2023-06-22T09:24:34;85337.83;;;32.27;6.24
73974;BME280;62336;-26.094;27.994;2023-06-22T09:26:59;85339.02;;;32.16;6.39
73974;BME280;62336;-26.094;27.994;2023-06-22T09:29:24;85336.86;;;32.85;5.98
73974;BME280;62336;-26.094;27.994;2023-06-22T09:31:49;85329.92;;;32.86;6.18
73974;BME280;62336;-26.094;27.994;2023-06-22T09:34:15;85332.47;;;32.36;6.08
73974;BME280;62336;-26.094;27.994;2023-06-22T09:36:42;85331.39;;;32.52;5.77
73974;BME280;62336;-26.094;27.994;2023-06-22T09:39:06;85328.58;;;32.66;5.31
73974;BME280;62336;-26.094;27.994;2023-06-22T09:41:32;85325.10;;;33.07;5.80
73974;BME280;62336;-26.094;27.994;2023-06-22T09:43:57;85323.25;;;33.19;5.73
73974;BME280;62336;-26.094;27.994;2023-06-22T09:46:28;85318.45;;;32.88;5.57
73974;BME280;62336;-26.094;27.994;2023-06-22T09:48:48;85323.07;;;32.80;5.85
73974;BME280;62336;-26.094;27.994;2023-06-22T09:51:13;85319.58;;;33.18;5.27
73974;BME280;62336;-26.094;27.994;2023-06-22T09:53:39;85316.89;;;33.07;5.35
73974;BME280;62336;-26.094;27.994;2023-06-22T09:56:04;85314.72;;;33.50;5.08
73974;BME280;62336;-26.094;27.994;2023-06-22T09:58:29;85317.29;;;32.91;5.46
73974;BME280;62336;-26.094;27.994;2023-06-22T10:00:55;85315.11;;;32.87;5.27
73974;BME280;62336;-26.094;27.994;2023-06-22T10:03:20;85310.03;;;32.33;5.23
73974;BME280;62336;-26.094;27.994;2023-06-22T10:05:45;85308.56;;;32.65;5.16
73974;BME280;62336;-26.094;27.994;2023-06-22T10:08:11;85302.40;;;32.77;5.38
73974;BME280;62336;-26.094;27.994;2023-06-22T10:10:36;85299.87;;;32.54;5.67
73974;BME280;62336;-26.094;27.994;2023-06-22T10:13:09;85293.50;;;32.91;5.39
73974;BME280;62336;-26.094;27.994;2023-06-22T10:15:28;85291.51;;;32.54;5.83
73974;BME280;62336;-26.094;27.994;2023-06-22T10:17:53;85285.99;;;32.87;5.30
73974;BME280;62336;-26.094;27.994;2023-06-22T10:20:18;85283.71;;;33.02;5.63
73974;BME280;62336;-26.094;27.994;2023-06-22T10:22:45;85275.91;;;33.28;5.28
73974;BME280;62336;-26.094;27.994;2023-06-22T10:25:11;85278.65;;;33.10;5.91
73974;BME280;62336;-26.094;27.994;2023-06-22T10:27:35;85273.24;;;33.68;5.17
73974;BME280;62336;-26.094;27.994;2023-06-22T10:30:00;85275.22;;;33.59;5.54
73974;BME280;62336;-26.094;27.994;2023-06-22T10:32:25;85270.07;;;33.68;4.86
73974;BME280;62336;-26.094;27.994;2023-06-22T10:34:50;85264.52;;;33.55;5.12
73974;BME280;62336;-26.094;27.994;2023-06-22T10:37:16;85261.33;;;32.95;5.68
73974;BME280;62336;-26.094;27.994;2023-06-22T10:39:40;85254.67;;;33.34;4.95
73974;BME280;62336;-26.094;27.994;2023-06-22T10:42:07;85254.17;;;33.13;5.17
73974;BME280;62336;-26.094;27.994;2023-06-22T10:44:31;85248.33;;;32.58;5.22
73974;BME280;62336;-26.094;27.994;2023-06-22T10:46:56;85249.50;;;33.75;4.83
73974;BME280;62336;-26.094;27.994;2023-06-22T10:49:22;85240.51;;;33.33;5.24
73974;BME280;62336;-26.094;27.994;2023-06-22T10:51:47;85243.95;;;34.03;5.08
73974;BME280;62336;-26.094;27.994;2023-06-22T10:54:13;85234.81;;;33.22;5.26
73974;BME280;62336;-26.094;27.994;2023-06-22T10:56:37;85233.31;;;33.51;5.03
73974;BME280;62336;-26.094;27.994;2023-06-22T10:59:03;85235.74;;;33.77;4.99
73974;BME280;62336;-26.094;27.994;2023-06-22T11:01:28;85231.24;;;34.14;4.77
73974;BME280;62336;-26.094;27.994;2023-06-22T11:03:54;85231.04;;;34.12;4.96
73974;BME280;62336;-26.094;27.994;2023-06-22T11:06:20;85228.55;;;34.07;4.98
73974;BME280;62336;-26.094;27.994;2023-06-22T11:08:45;85229.36;;;34.10;5.01
73974;BME280;62336;-26.094;27.994;2023-06-22T11:11:10;85228.18;;;33.98;4.90
73974;BME280;62336;-26.094;27.994;2023-06-22T11:13:36;85226.59;;;33.50;5.22
73974;BME280;62336;-26.094;27.994;2023-06-22T11:16:01;85226.85;;;34.17;5.22
73974;BME280;62336;-26.094;27.994;2023-06-22T11:18:27;85219.78;;;33.87;4.75
73974;BME280;62336;-26.094;27.994;2023-06-22T11:20:52;85222.46;;;33.55;5.07
73974;BME280;62336;-26.094;27.994;2023-06-22T11:23:17;85220.63;;;33.78;5.00
73974;BME280;62336;-26.094;27.994;2023-06-22T11:25:43;85220.25;;;34.28;4.86
73974;BME280;62336;-26.094;27.994;2023-06-22T11:28:08;85218.70;;;33.93;4.95
73974;BME280;62336;-26.094;27.994;2023-06-22T11:30:34;85220.31;;;34.80;4.63
73974;BME280;62336;-26.094;27.994;2023-06-22T11:33:00;85220.63;;;34.59;4.71
73974;BME280;62336;-26.094;27.994;2023-06-22T11:35:25;85211.68;;;33.86;4.78
73974;BME280;62336;-26.094;27.994;2023-06-22T11:37:50;85212.16;;;34.21;4.76
73974;BME280;62336;-26.094;27.994;2023-06-22T11:40:15;85211.69;;;34.09;5.13
73974;BME280;62336;-26.094;27.994;2023-06-22T11:42:41;85210.40;;;34.51;4.61
73974;BME280;62336;-26.094;27.994;2023-06-22T11:45:07;85206.20;;;34.53;4.77
73974;BME280;62336;-26.094;27.994;2023-06-22T11:47:32;85202.86;;;34.15;5.10
73974;BME280;62336;-26.094;27.994;2023-06-22T11:49:59;85201.11;;;34.45;4.67
73974;BME280;62336;-26.094;27.994;2023-06-22T11:52:24;85203.71;;;34.16;5.03
73974;BME280;62336;-26.094;27.994;2023-06-22T11:54:49;85197.56;;;34.14;4.98
73974;BME280;62336;-26.094;27.994;2023-06-22T11:57:15;85197.19;;;33.29;5.11
73974;BME280;62336;-26.094;27.994;2023-06-22T11:59:41;85197.38;;;33.68;5.06
73974;BME280;62336;-26.094;27.994;2023-06-22T12:02:07;85200.52;;;33.94;4.89
73974;BME280;62336;-26.094;27.994;2023-06-22T12:04:31;85193.95;;;33.97;4.90
73974;BME280;62336;-26.094;27.994;2023-06-22T12:06:56;85196.72;;;33.70;4.98
73974;BME280;62336;-26.094;27.994;2023-06-22T12:09:22;85199.24;;;34.13;5.04
73974;BME280;62336;-26.094;27.994;2023-06-22T12:11:47;85194.91;;;33.94;5.35
73974;BME280;62336;-26.094;27.994;2023-06-22T12:14:13;85191.42;;;34.04;5.12
73974;BME280;62336;-26.094;27.994;2023-06-22T12:16:38;85191.55;;;34.25;4.92
73974;BME280;62336;-26.094;27.994;2023-06-22T12:19:04;85192.99;;;33.90;5.04
73974;BME280;62336;-26.094;27.994;2023-06-22T12:21:29;85185.94;;;33.77;4.99
73974;BME280;62336;-26.094;27.994;2023-06-22T12:23:54;85189.71;;;33.70;5.16
73974;BME280;62336;-26.094;27.994;2023-06-22T12:26:20;85187.80;;;34.62;4.80
73974;BME280;62336;-26.094;27.994;2023-06-22T12:28:45;85188.05;;;34.37;4.99
73974;BME280;62336;-26.094;27.994;2023-06-22T12:31:10;85191.31;;;34.65;4.97
73974;BME280;62336;-26.094;27.994;2023-06-22T12:33:36;85189.73;;;34.40;4.93
73974;BME280;62336;-26.094;27.994;2023-06-22T12:36:01;85191.20;;;34.62;4.96